Time;durP1;ratioP1;P1;durP2;ratioP2;P2;SDS_P1;SDS_P2;PMS_P1;PMS_P2;Temp;Humidity;BMP_temperature;BMP_pressure;BME280_temperature;BME280_humidity;BME280_pressure;Samples;Min_cycle;Max_cycle;Signal;HPM_P1;HPM_P2
2023/06/07 00:01:21;;;;;;;9.93;5.80;;;;;;;19.35;60.23;99694.78;4380467;32;28647;-86
2023/06/07 00:03:48;;;;;;;10.10;6.07;;;;;;;19.27;60.23;99685.59;4392196;32;20391;-86
2023/06/07 00:06:14;;;;;;;10.18;5.75;;;;;;;19.15;60.22;99689.06;4408847;32;20552;-85
2023/06/07 00:08:39;;;;;;;11.15;6.15;;;;;;;19.19;60.22;99687.94;4394291;32;20105;-86
2023/06/07 00:11:05;;;;;;;10.80;5.10;;;;;;;19.23;60.22;99689.41;4408984;32;20089;-86
2023/06/07 00:13:31;;;;;;;7.68;5.05;;;;;;;19.21;60.22;99683.38;4394611;32;20133;-85
2023/06/07 00:15:56;;;;;;;12.73;5.65;;;;;;;19.18;60.22;99682.75;4408853;32;20113;-84
2023/06/07 00:18:22;;;;;;;6.82;4.95;;;;;;;19.14;60.21;99682.09;4409087;32;20143;-85
2023/06/07 00:20:49;;;;;;;15.25;5.70;;;;;;;19.13;60.22;99685.69;4406024;32;20490;-85
2023/06/07 00:23:15;;;;;;;7.22;5.35;;;;;;;19.15;60.22;99689.06;4402614;32;20125;-85
2023/06/07 00:25:40;;;;;;;8.50;5.50;;;;;;;19.16;60.22;99685.47;4414003;32;20473;-85
2023/06/07 00:28:06;;;;;;;7.95;5.57;;;;;;;19.10;60.22;99688.53;4408224;32;20145;-85
2023/06/07 00:30:31;;;;;;;9.60;5.75;;;;;;;19.09;60.22;99686.84;4402368;32;20446;-86
2023/06/07 00:32:57;;;;;;;9.20;5.55;;;;;;;18.97;60.20;99680.63;4403223;32;20573;-85
2023/06/07 00:35:22;;;;;;;7.43;5.10;;;;;;;19.00;60.20;99690.97;4422538;32;20355;-85
2023/06/07 00:37:47;;;;;;;8.32;5.45;;;;;;;18.93;60.21;99694.97;4422563;32;20078;-84
2023/06/07 00:40:13;;;;;;;7.93;4.60;;;;;;;19.11;60.21;99692.03;4408139;32;20176;-84
2023/06/07 00:42:38;;;;;;;13.48;5.40;;;;;;;18.98;60.20;99689.37;4422000;32;20157;-84
2023/06/07 00:45:04;;;;;;;11.07;5.25;;;;;;;18.97;60.20;99690.34;4422328;32;20160;-85
2023/06/07 00:47:30;;;;;;;10.90;5.62;;;;;;;19.11;60.21;99692.03;4422124;32;20136;-85
2023/06/07 00:49:55;;;;;;;8.15;5.25;;;;;;;19.07;60.21;99690.53;4408026;32;20501;-83
2023/06/07 00:52:21;;;;;;;9.13;5.47;;;;;;;19.04;60.21;99696.87;4395458;32;20153;-85
2023/06/07 00:54:46;;;;;;;10.25;5.20;;;;;;;18.95;60.21;99690.44;4393264;32;20160;-86
2023/06/07 00:57:12;;;;;;;9.68;5.20;;;;;;;19.01;60.22;99700.56;4402029;32;27753;-85
2023/06/07 00:59:37;;;;;;;10.82;6.32;;;;;;;19.01;60.22;99690.00;4393097;32;20154;-85
2023/06/07 01:02:04;;;;;;;9.63;6.05;;;;;;;19.23;60.22;99691.19;4403839;32;20615;-84
2023/06/07 01:04:30;;;;;;;8.55;5.87;;;;;;;19.20;60.22;99681.69;4408298;32;20097;-86
2023/06/07 01:06:55;;;;;;;7.80;5.15;;;;;;;19.14;60.22;99687.38;4421986;32;20152;-85
2023/06/07 01:09:22;;;;;;;10.32;5.35;;;;;;;19.25;60.23;99682.22;4405590;32;20352;-85
2023/06/07 01:11:48;;;;;;;6.80;4.87;;;;;;;19.21;60.22;99682.53;4402668;32;20110;-86
2023/06/07 01:14:14;;;;;;;10.18;6.07;;;;;;;19.19;60.22;99681.81;4408036;32;20172;-86
2023/06/07 01:16:39;;;;;;;6.80;5.10;;;;;;;19.06;60.21;99679.16;4395098;32;20465;-86
2023/06/07 01:19:05;;;;;;;11.70;5.40;;;;;;;19.13;60.22;99676.94;4392736;32;20241;-86
2023/06/07 01:21:32;;;;;;;9.77;5.82;;;;;;;19.15;60.22;99664.47;4389123;32;20132;-86
2023/06/07 01:23:59;;;;;;;8.90;5.37;;;;;;;19.07;60.21;99670.28;4405718;32;20732;-86
2023/06/07 01:26:26;;;;;;;9.98;5.10;;;;;;;19.02;60.22;99662.69;4377564;32;20124;-85
2023/06/07 01:28:52;;;;;;;10.45;6.70;;;;;;;19.06;60.21;99662.47;4406154;32;20148;-86
2023/06/07 01:31:17;;;;;;;8.18;5.80;;;;;;;19.15;60.21;99659.19;4405945;32;20125;-86
2023/06/07 01:33:43;;;;;;;7.00;5.35;;;;;;;19.13;60.22;99661.94;4394836;32;20454;-86
2023/06/07 01:36:08;;;;;;;10.10;5.05;;;;;;;19.15;60.22;99656.56;4406051;32;20966;-86
2023/06/07 01:38:34;;;;;;;7.32;5.22;;;;;;;19.06;60.21;99660.69;4394642;32;20153;-86
2023/06/07 01:40:59;;;;;;;11.10;5.40;;;;;;;18.98;60.21;99657.72;4405835;32;20173;-85
2023/06/07 01:43:25;;;;;;;8.38;5.12;;;;;;;19.02;60.21;99661.84;4394851;32;20203;-86
2023/06/07 01:45:50;;;;;;;8.90;5.37;;;;;;;18.99;60.20;99656.78;4403295;32;33378;-86
2023/06/07 01:48:16;;;;;;;9.80;4.72;;;;;;;19.07;60.21;99656.25;4409684;32;20098;-86
2023/06/07 01:50:41;;;;;;;8.35;5.07;;;;;;;18.96;60.21;99654.34;4423826;32;20129;-85
2023/06/07 01:53:07;;;;;;;8.75;5.25;;;;;;;18.97;60.21;99658.69;4409710;32;20172;-86
2023/06/07 01:55:32;;;;;;;9.57;5.20;;;;;;;19.07;60.21;99654.44;4395283;32;20086;-86
2023/06/07 01:58:16;;;;;;;6.68;4.72;;;;;;;19.09;60.22;99652.56;4394108;32;20173;-86
2023/06/07 02:00:51;;;;;;;7.00;4.72;;;;;;;19.16;60.22;99643.25;4421274;32;20098;-86
2023/06/07 02:03:25;;;;;;;7.97;5.12;;;;;;;19.12;60.22;99648.84;4407202;32;20135;-85
2023/06/07 02:06:01;;;;;;;6.97;5.18;;;;;;;19.41;60.23;99649.50;4409355;32;20130;-86
2023/06/07 02:08:32;;;;;;;6.95;5.03;;;;;;;19.23;60.22;99654.25;4396876;32;20098;-86
2023/06/07 02:10:58;;;;;;;11.85;5.22;;;;;;;19.38;60.22;99653.16;4406873;32;20098;-85
2023/06/07 02:13:23;;;;;;;8.68;5.57;;;;;;;19.48;60.24;99664.78;4403156;32;20131;-86
2023/06/07 02:15:49;;;;;;;8.52;6.18;;;;;;;19.41;60.24;99657.41;4397050;32;20213;-86
2023/06/07 02:18:18;;;;;;;13.85;6.45;;;;;;;19.23;60.22;99655.09;4409062;32;20144;-86
2023/06/07 02:20:43;;;;;;;12.02;6.05;;;;;;;19.25;60.23;99652.34;4407017;32;20161;-86
2023/06/07 02:23:09;;;;;;;9.50;5.40;;;;;;;19.27;60.22;99656.56;4419008;32;20542;-86
2023/06/07 02:25:34;;;;;;;8.77;5.55;;;;;;;19.21;60.22;99649.09;4393991;32;20168;-86
2023/06/07 02:28:00;;;;;;;7.15;5.82;;;;;;;19.23;60.22;99641.06;4418755;32;20118;-86
2023/06/07 02:30:25;;;;;;;6.80;4.85;;;;;;;19.19;60.22;99652.78;4409436;32;20162;-86
2023/06/07 02:32:53;;;;;;;6.72;4.93;;;;;;;19.06;60.21;99649.28;4407588;32;20082;-86
2023/06/07 02:35:19;;;;;;;8.90;5.03;;;;;;;19.13;60.21;99643.47;4397373;32;20085;-86
2023/06/07 02:37:45;;;;;;;7.43;5.43;;;;;;;19.08;60.21;99648.22;4396876;32;20102;-86
2023/06/07 02:40:11;;;;;;;7.30;4.82;;;;;;;19.03;60.21;99647.69;4409088;32;20145;-86
2023/06/07 02:42:37;;;;;;;6.90;5.28;;;;;;;19.07;60.21;99649.19;4407895;32;20098;-86
2023/06/07 02:45:03;;;;;;;7.75;5.22;;;;;;;19.07;60.21;99651.81;4409352;32;20141;-86
2023/06/07 02:47:32;;;;;;;9.23;4.80;;;;;;;19.10;60.22;99648.13;4395375;32;20108;-87
2023/06/07 02:49:57;;;;;;;8.98;5.40;;;;;;;19.02;60.22;99643.37;4406987;32;20094;-87
2023/06/07 02:52:25;;;;;;;8.88;5.35;;;;;;;19.05;60.21;99642.31;4392017;32;20140;-86
2023/06/07 02:54:50;;;;;;;9.25;5.07;;;;;;;19.07;60.21;99646.53;4423278;32;20160;-87
2023/06/07 02:57:16;;;;;;;8.63;5.97;;;;;;;19.05;60.21;99648.44;4409171;32;20385;-86
2023/06/07 02:59:41;;;;;;;8.15;5.75;;;;;;;19.07;60.21;99649.19;4422869;32;20121;-86
2023/06/07 03:02:06;;;;;;;8.02;5.68;;;;;;;19.09;60.21;99646.44;4407740;32;20165;-86
2023/06/07 03:04:32;;;;;;;6.87;4.72;;;;;;;19.13;60.21;99648.75;4422522;32;30978;-86
2023/06/07 03:06:58;;;;;;;10.70;5.53;;;;;;;19.09;60.21;99649.06;4408844;32;20113;-86
2023/06/07 03:09:24;;;;;;;10.10;4.97;;;;;;;19.13;60.22;99648.75;4394419;32;20118;-85
2023/06/07 03:11:49;;;;;;;6.05;4.60;;;;;;;19.12;60.21;99647.06;4419677;32;20136;-86
2023/06/07 03:14:16;;;;;;;6.82;4.82;;;;;;;19.17;60.22;99644.13;4409351;32;20098;-86
2023/06/07 03:16:44;;;;;;;10.25;5.45;;;;;;;19.17;60.22;99652.88;4409173;32;20094;-87
2023/06/07 03:19:10;;;;;;;10.32;4.62;;;;;;;19.10;60.21;99654.25;4406650;32;20446;-87
2023/06/07 03:21:35;;;;;;;10.70;5.75;;;;;;;18.99;60.20;99656.78;4403474;32;20120;-87
2023/06/07 03:24:01;;;;;;;11.25;5.18;;;;;;;19.34;60.23;99654.34;4406498;32;20093;-87
2023/06/07 03:26:26;;;;;;;9.90;5.72;;;;;;;19.12;60.21;99660.25;4418884;32;20126;-86
2023/06/07 03:28:54;;;;;;;12.90;5.55;;;;;;;18.94;60.21;99651.81;4422208;32;33425;-86
2023/06/07 03:31:19;;;;;;;14.98;6.03;;;;;;;18.83;60.20;99654.31;4407200;32;21119;-86
2023/06/07 03:33:44;;;;;;;7.75;5.07;;;;;;;18.88;60.20;99654.00;4393850;32;20684;-86
2023/06/07 03:36:11;;;;;;;10.55;5.25;;;;;;;18.81;60.20;99658.03;4418453;32;20078;-85
2023/06/07 03:38:37;;;;;;;7.12;4.93;;;;;;;18.90;60.20;99657.37;4406449;32;20094;-86
2023/06/07 03:41:02;;;;;;;10.60;5.60;;;;;;;18.92;60.20;99663.41;4402125;32;20131;-87
2023/06/07 03:43:27;;;;;;;7.72;5.22;;;;;;;18.98;60.20;99658.56;4384396;32;20094;-87
2023/06/07 03:45:53;;;;;;;8.05;5.62;;;;;;;19.20;60.22;99663.22;4403758;32;30141;-87
2023/06/07 03:48:18;;;;;;;6.95;5.55;;;;;;;19.11;60.21;99661.19;4422214;32;29081;-87
2023/06/07 03:50:44;;;;;;;12.80;5.22;;;;;;;19.19;60.22;99666.81;4406281;32;20378;-85
2023/06/07 03:53:09;;;;;;;8.40;4.90;;;;;;;19.26;60.22;99668.06;4392597;32;31384;-86
2023/06/07 03:55:34;;;;;;;10.48;4.68;;;;;;;19.37;60.23;99675.25;4417740;32;20078;-85
2023/06/07 03:58:00;;;;;;;9.50;5.60;;;;;;;19.38;60.22;99661.09;4408368;32;20152;-87
2023/06/07 04:00:27;;;;;;;7.18;5.43;;;;;;;19.28;60.23;99660.91;4393404;32;20124;-87
2023/06/07 04:02:53;;;;;;;9.07;5.28;;;;;;;19.45;60.23;99658.87;4408931;32;20089;-87
2023/06/07 04:05:19;;;;;;;7.68;5.30;;;;;;;19.71;60.25;99668.47;4406212;32;20113;-87
2023/06/07 04:07:47;;;;;;;11.93;5.40;;;;;;;19.60;60.24;99669.22;4393517;32;20102;-87
2023/06/07 04:10:13;;;;;;;10.55;5.32;;;;;;;19.56;60.24;99662.47;4393903;32;20131;-87
2023/06/07 04:12:38;;;;;;;12.32;5.37;;;;;;;19.72;60.25;99671.97;4393685;32;20090;-87
2023/06/07 04:15:04;;;;;;;10.30;5.12;;;;;;;19.78;60.24;99666.25;4403781;32;20395;-87
2023/06/07 04:17:30;;;;;;;8.48;4.87;;;;;;;19.85;60.26;99670.97;4395909;32;20564;-87
2023/06/07 04:19:56;;;;;;;9.63;5.30;;;;;;;20.02;60.26;99669.75;4391677;32;20154;-87
2023/06/07 04:22:22;;;;;;;9.23;5.32;;;;;;;19.84;60.25;99666.63;4406138;32;20107;-87
2023/06/07 04:24:48;;;;;;;5.97;5.03;;;;;;;19.81;60.26;99669.50;4418366;32;20116;-87
2023/06/07 04:27:17;;;;;;;9.00;4.95;;;;;;;19.93;60.25;99668.63;4422710;32;20094;-87
2023/06/07 04:29:43;;;;;;;10.30;4.97;;;;;;;20.07;60.26;99672.06;4382801;32;20109;-86
2023/06/07 04:32:09;;;;;;;7.28;5.60;;;;;;;20.07;60.26;99672.91;4423452;32;20103;-86
2023/06/07 04:34:41;;;;;;;6.60;4.68;;;;;;;20.06;60.26;99673.03;4398566;32;20157;-87
2023/06/07 04:37:08;;;;;;;7.22;5.12;;;;;;;20.13;60.27;99669.00;4393989;32;20201;-87
2023/06/07 04:39:36;;;;;;;12.07;5.40;;;;;;;20.07;60.26;99662.34;4417458;32;20110;-89
2023/06/07 04:42:04;;;;;;;8.75;5.05;;;;;;;20.24;60.28;99664.59;4373477;32;20132;-86
2023/06/07 04:44:29;;;;;;;8.43;5.53;;;;;;;20.51;60.28;99660.91;4393910;32;20165;-86
2023/06/07 04:46:57;;;;;;;9.95;4.95;;;;;;;20.70;60.29;99660.38;4405720;32;20177;-86
2023/06/07 04:49:23;;;;;;;10.82;5.53;;;;;;;20.68;60.30;99657.03;4406264;32;20113;-86
2023/06/07 04:51:50;;;;;;;12.52;4.90;;;;;;;20.71;60.30;99657.63;4408441;32;20111;-87
2023/06/07 04:54:16;;;;;;;8.18;5.22;;;;;;;20.65;60.29;99651.97;4421986;32;20243;-85
2023/06/07 04:56:42;;;;;;;8.52;5.00;;;;;;;20.59;60.29;99669.12;4405548;32;20098;-86
2023/06/07 04:59:08;;;;;;;8.50;5.30;;;;;;;20.83;60.31;99672.59;4406144;32;20147;-86
2023/06/07 05:01:34;;;;;;;10.60;5.25;;;;;;;20.84;60.30;99671.63;4407686;32;20108;-86
2023/06/07 05:04:02;;;;;;;8.63;5.22;;;;;;;20.75;60.30;99672.31;4406018;32;20122;-86
2023/06/07 05:06:28;;;;;;;10.23;5.75;;;;;;;20.66;60.30;99675.66;4403862;32;20113;-86
2023/06/07 05:08:55;;;;;;;8.32;5.85;;;;;;;20.73;60.30;99673.37;4409838;32;20162;-85
2023/06/07 05:11:20;;;;;;;6.72;5.05;;;;;;;20.75;60.30;99668.81;4407269;32;20166;-85
2023/06/07 05:13:49;;;;;;;10.10;5.28;;;;;;;20.86;60.30;99671.50;4422174;32;20090;-86
2023/06/07 05:16:16;;;;;;;9.90;5.47;;;;;;;20.85;60.30;99675.13;4423859;32;20094;-85
2023/06/07 05:18:42;;;;;;;7.70;4.90;;;;;;;21.01;60.31;99672.97;4409751;32;20126;-86
2023/06/07 05:21:08;;;;;;;7.32;4.78;;;;;;;21.00;60.31;99673.09;4423474;32;20189;-86
2023/06/07 05:23:33;;;;;;;8.57;5.12;;;;;;;21.25;60.32;99666.78;4423615;32;20126;-86
2023/06/07 05:25:59;;;;;;;11.93;5.12;;;;;;;21.18;60.33;99662.91;4422838;32;34082;-86
2023/06/07 05:28:24;;;;;;;7.80;5.53;;;;;;;21.07;60.31;99659.28;4407055;32;20102;-86
2023/06/07 05:30:50;;;;;;;8.85;5.35;;;;;;;21.15;60.32;99667.47;4402437;32;20449;-87
2023/06/07 05:33:15;;;;;;;8.30;5.20;;;;;;;21.34;60.33;99666.09;4422845;32;20175;-86
2023/06/07 05:35:46;;;;;;;10.90;5.85;;;;;;;21.36;60.33;99666.81;4407240;32;20430;-86
2023/06/07 05:38:11;;;;;;;6.20;4.47;;;;;;;21.35;60.33;99660.69;4383686;32;20212;-86
2023/06/07 05:40:36;;;;;;;7.32;4.82;;;;;;;21.45;60.34;99669.56;4396971;32;20148;-85
2023/06/07 05:43:02;;;;;;;7.87;4.50;;;;;;;21.55;60.34;99671.53;4409196;32;20144;-86
2023/06/07 05:45:28;;;;;;;7.93;4.30;;;;;;;21.57;60.35;99673.09;4406758;32;20125;-86
2023/06/07 05:47:53;;;;;;;6.82;4.70;;;;;;;21.75;60.35;99668.94;4407681;32;20143;-86
2023/06/07 05:50:20;;;;;;;9.60;4.55;;;;;;;21.57;60.35;99664.28;4423429;32;20121;-86
2023/06/07 05:52:46;;;;;;;9.85;5.37;;;;;;;21.98;60.36;99674.22;4406740;32;20094;-86
2023/06/07 05:55:11;;;;;;;6.37;4.62;;;;;;;21.79;60.35;99674.03;4388723;32;20379;-86
2023/06/07 05:57:37;;;;;;;6.15;4.30;;;;;;;21.83;60.36;99678.12;4412876;32;30984;-84
2023/06/07 06:00:10;;;;;;;11.07;5.20;;;;;;;21.86;60.35;99677.88;4394470;32;20140;-86
2023/06/07 06:02:37;;;;;;;8.25;5.37;;;;;;;21.88;60.36;99681.25;4396348;32;20458;-85
2023/06/07 06:05:03;;;;;;;6.10;4.95;;;;;;;21.86;60.35;99678.72;4423592;32;20098;-85
2023/06/07 06:07:29;;;;;;;10.00;4.82;;;;;;;22.16;60.37;99679.91;4423549;32;20151;-85
2023/06/07 06:09:54;;;;;;;10.25;4.40;;;;;;;22.24;60.37;99674.78;4394129;32;20208;-86
2023/06/07 06:12:22;;;;;;;9.68;4.95;;;;;;;22.13;60.37;99680.16;4422053;32;20120;-85
2023/06/07 06:14:48;;;;;;;11.55;5.30;;;;;;;22.16;60.38;99679.91;4422849;32;20110;-85
2023/06/07 06:17:13;;;;;;;10.15;4.93;;;;;;;22.24;60.37;99680.97;4405983;32;29849;-85
2023/06/07 06:19:38;;;;;;;6.57;5.03;;;;;;;22.40;60.38;99679.69;4403323;32;20160;-86
2023/06/07 06:22:04;;;;;;;7.00;3.85;;;;;;;22.30;60.38;99685.78;4423108;32;20100;-85
2023/06/07 06:24:30;;;;;;;6.30;4.28;;;;;;;22.45;60.39;99694.25;4423375;32;20141;-85
2023/06/07 06:26:56;;;;;;;7.15;4.03;;;;;;;22.54;60.39;99690.03;4422501;32;20477;-85
2023/06/07 06:29:21;;;;;;;10.90;4.53;;;;;;;22.64;60.39;99685.62;4405964;32;20139;-83
2023/06/07 06:31:47;;;;;;;5.93;4.00;;;;;;;22.36;60.39;99684.41;4421972;32;20145;-84
2023/06/07 06:34:13;;;;;;;8.88;4.15;;;;;;;22.51;60.39;99683.16;4393379;32;20134;-84
2023/06/07 06:36:38;;;;;;;6.75;3.92;;;;;;;22.60;60.40;99687.72;4421636;32;20149;-84
2023/06/07 06:39:04;;;;;;;8.90;3.70;;;;;;;22.59;60.40;99682.53;4409030;32;20123;-84
2023/06/07 06:41:30;;;;;;;6.32;3.90;;;;;;;22.61;60.40;99688.53;4422620;32;20174;-85
2023/06/07 06:43:56;;;;;;;10.90;3.80;;;;;;;22.69;60.40;99683.44;4406601;32;20130;-85
2023/06/07 06:46:21;;;;;;;5.15;3.72;;;;;;;22.81;60.41;99687.75;4421071;32;20118;-84
2023/06/07 06:48:47;;;;;;;9.63;4.00;;;;;;;22.76;60.40;99684.62;4408325;32;35276;-85
2023/06/07 06:51:12;;;;;;;10.82;4.85;;;;;;;22.67;60.41;99685.38;4393606;32;20182;-84
2023/06/07 06:53:37;;;;;;;12.73;4.22;;;;;;;22.75;60.40;99685.59;4405959;32;20744;-84
2023/06/07 06:56:03;;;;;;;15.73;4.62;;;;;;;22.99;60.42;99689.84;4406668;32;23707;-85
2023/06/07 06:58:30;;;;;;;13.57;4.12;;;;;;;;;;4406513;32;20116;-84
2023/06/07 07:00:56;;;;;;;9.70;4.10;;;;;;;23.16;60.43;99694.56;4407158;32;20120;-85
2023/06/07 07:03:21;;;;;;;6.03;4.40;;;;;;;23.18;60.43;99689.94;4409018;32;20129;-83
2023/06/07 07:05:47;;;;;;;15.60;4.95;;;;;;;23.30;60.44;99688.91;4380838;32;20166;-85
2023/06/07 07:08:12;;;;;;;16.50;5.20;;;;;;;23.55;60.45;99688.50;4412520;32;20165;-85
2023/06/07 07:10:38;;;;;;;16.85;5.18;;;;;;;23.86;60.46;99689.31;4404984;32;20125;-85
2023/06/07 07:13:03;;;;;;;26.52;6.30;;;;;;;23.99;60.47;99698.91;4399454;32;20152;-85
2023/06/07 07:15:29;;;;;;;28.12;6.18;;;;;;;24.14;60.48;99687.75;4394461;32;20124;-85
2023/06/07 07:17:54;;;;;;;16.27;5.60;;;;;;;24.34;60.49;99690.44;4394077;32;20113;-84
2023/06/07 07:20:20;;;;;;;9.90;4.85;;;;;;;24.34;60.49;99687.78;4408343;32;20114;-84
2023/06/07 07:22:46;;;;;;;10.25;4.80;;;;;;;24.46;60.50;99692.84;4395975;32;20126;-85
2023/06/07 07:25:15;;;;;;;7.43;4.50;;;;;;;24.43;60.49;99690.47;4379377;32;20491;-85
2023/06/07 07:27:40;;;;;;;8.30;4.07;;;;;;;24.61;60.50;99698.63;4387054;32;20207;-85
2023/06/07 07:30:06;;;;;;;6.43;4.30;;;;;;;24.56;60.50;99700.81;4392533;32;20090;-85
2023/06/07 07:32:35;;;;;;;8.57;4.35;;;;;;;24.48;60.50;99700.69;4416358;32;20110;-86
2023/06/07 07:35:00;;;;;;;8.75;4.05;;;;;;;24.73;60.50;99705.47;4384047;32;20121;-85
2023/06/07 07:37:28;;;;;;;8.38;4.40;;;;;;;24.74;60.51;99701.81;4422227;32;20086;-85
2023/06/07 07:39:53;;;;;;;7.68;4.25;;;;;;;24.85;60.52;99700.84;4408800;32;20115;-85
2023/06/07 07:42:19;;;;;;;7.15;4.22;;;;;;;24.89;60.52;99694.25;4405916;32;20427;-86
2023/06/07 07:44:44;;;;;;;8.25;4.47;;;;;;;24.90;60.52;99698.59;4408018;32;20105;-85
2023/06/07 07:47:11;;;;;;;6.90;4.53;;;;;;;24.99;60.53;99699.59;4422000;32;23210;-85
2023/06/07 07:49:37;;;;;;;9.77;4.90;;;;;;;24.97;60.52;99698.88;4404126;32;20112;-85
2023/06/07 07:52:02;;;;;;;9.40;4.40;;;;;;;24.82;60.51;99705.59;4416939;32;20142;-85
2023/06/07 07:54:29;;;;;;;10.57;4.18;;;;;;;24.96;60.52;99711.34;4408599;32;20117;-85
2023/06/07 07:56:55;;;;;;;6.15;4.57;;;;;;;24.92;60.53;99711.78;4422723;32;20163;-85
2023/06/07 07:59:20;;;;;;;9.32;4.28;;;;;;;24.84;60.52;99708.94;4408469;32;20415;-86
2023/06/07 08:01:45;;;;;;;8.38;4.43;;;;;;;24.90;60.52;99711.91;4380890;32;20169;-86
2023/06/07 08:04:11;;;;;;;7.20;4.45;;;;;;;24.99;60.53;99712.91;4407605;32;20442;-85
2023/06/07 08:06:38;;;;;;;7.15;4.22;;;;;;;25.14;60.54;99708.84;4406140;32;20152;-86
2023/06/07 08:09:03;;;;;;;6.75;3.72;;;;;;;25.14;60.52;99706.16;4392771;32;20106;-84
2023/06/07 08:11:29;;;;;;;7.30;4.75;;;;;;;25.20;60.54;99715.41;4416914;32;20173;-86
2023/06/07 08:13:54;;;;;;;8.30;4.45;;;;;;;25.00;60.53;99720.75;4421672;32;30896;-86
2023/06/07 08:16:20;;;;;;;33.25;7.03;;;;;;;25.23;60.55;99720.44;4422512;32;20125;-86
2023/06/07 08:18:49;;;;;;;9.30;5.35;;;;;;;25.46;60.54;99716.47;4408226;32;20097;-83
2023/06/07 08:21:14;;;;;;;10.45;4.50;;;;;;;25.73;60.56;99712.19;4408970;32;20451;-83
2023/06/07 08:23:43;;;;;;;10.35;4.40;;;;;;;25.69;60.56;99712.47;4408473;32;20157;-83
2023/06/07 08:26:08;;;;;;;9.73;4.53;;;;;;;25.66;60.56;99709.25;4422640;32;20167;-84
2023/06/07 08:28:34;;;;;;;8.85;4.35;;;;;;;25.77;60.56;99709.06;4422202;32;20101;-83
2023/06/07 08:31:01;;;;;;;8.48;5.07;;;;;;;25.84;60.57;99704.84;4407214;32;34789;-83
2023/06/07 08:33:27;;;;;;;7.37;4.60;;;;;;;25.92;60.57;99707.59;4408080;32;20093;-85
2023/06/07 08:35:52;;;;;;;8.98;4.95;;;;;;;26.02;60.57;99704.88;4421938;32;20172;-83
2023/06/07 08:38:17;;;;;;;5.72;4.35;;;;;;;26.19;60.59;99711.25;4405711;32;35971;-84
2023/06/07 08:40:43;;;;;;;9.98;4.90;;;;;;;26.35;60.60;99700.78;4405702;32;20162;-83
2023/06/07 08:43:08;;;;;;;6.97;4.47;;;;;;;26.42;60.60;99701.84;4404806;32;20158;-83
2023/06/07 08:45:34;;;;;;;6.03;4.93;;;;;;;26.56;60.60;99701.34;4417080;32;20102;-83
2023/06/07 08:48:00;;;;;;;8.88;5.30;;;;;;;26.60;60.61;99697.38;4393581;32;20124;-85
2023/06/07 08:50:26;;;;;;;7.60;4.55;;;;;;;26.79;60.61;99690.19;4402959;32;20102;-84
2023/06/07 08:52:53;;;;;;;6.65;4.65;;;;;;;27.06;60.64;99697.28;4421572;32;20101;-85
2023/06/07 08:55:19;;;;;;;11.02;6.47;;;;;;;27.15;60.63;99689.16;4405528;32;20151;-85
2023/06/07 08:57:51;;;;;;;7.12;4.62;;;;;;;27.20;60.64;99681.50;4421365;32;20084;-84
2023/06/07 09:00:21;;;;;;;53.50;35.90;;;;;;;27.44;60.65;99680.81;4408320;32;20174;-83
2023/06/07 09:02:51;;;;;;;10.75;6.05;;;;;;;27.48;60.65;99686.69;4392911;32;20148;-84
2023/06/07 09:05:17;;;;;;;10.18;4.70;;;;;;;27.60;60.66;99677.38;4417889;32;20112;-84
2023/06/07 09:07:42;;;;;;;6.45;4.05;;;;;;;27.69;60.66;99689.00;4394856;32;20153;-84
2023/06/07 09:10:08;;;;;;;7.95;4.60;;;;;;;27.77;60.67;99689.88;4405586;32;22428;-84
2023/06/07 09:12:33;;;;;;;6.57;5.75;;;;;;;27.75;60.67;99691.88;4408116;32;20144;-83
2023/06/07 09:14:59;;;;;;;7.75;4.62;;;;;;;27.80;60.67;99694.91;4421429;32;20133;-83
2023/06/07 09:17:24;;;;;;;6.47;4.40;;;;;;;27.88;60.67;99694.09;4392824;32;20111;-84
2023/06/07 09:19:50;;;;;;;7.72;4.70;;;;;;;27.88;60.67;99691.41;4401328;32;20225;-85
2023/06/07 09:22:17;;;;;;;11.98;6.85;;;;;;;28.12;60.69;99690.66;4392745;32;20166;-85
2023/06/07 09:24:42;;;;;;;7.18;4.85;;;;;;;28.35;60.70;99691.75;4390475;32;20152;-85
2023/06/07 09:27:08;;;;;;;5.97;4.50;;;;;;;28.45;60.70;99690.78;4407610;32;20104;-84
2023/06/07 09:29:41;;;;;;;7.22;4.45;;;;;;;28.45;60.70;99690.78;4421418;32;20148;-84
2023/06/07 09:32:20;;;;;;;7.30;4.57;;;;;;;28.47;60.71;99696.81;4392340;32;20106;-83
2023/06/07 09:34:46;;;;;;;8.10;4.55;;;;;;;28.29;60.69;99696.94;4405108;32;20160;-84
2023/06/07 09:37:11;;;;;;;6.72;4.32;;;;;;;28.25;60.69;99696.44;4404708;32;20112;-84
2023/06/07 09:39:38;;;;;;;6.12;5.15;;;;;;;28.37;60.71;99697.78;4418953;32;20135;-84
2023/06/07 09:42:13;;;;;;;7.65;4.40;;;;;;;28.49;60.71;99695.63;4407388;32;20125;-84
2023/06/07 09:44:38;;;;;;;5.72;4.70;;;;;;;28.33;60.70;99698.28;4408173;32;20447;-84
2023/06/07 09:47:04;;;;;;;6.68;4.97;;;;;;;28.01;60.69;99693.66;4421148;32;20153;-84
2023/06/07 09:49:34;;;;;;;8.75;5.12;;;;;;;27.99;60.69;99709.03;4420925;32;20158;-84
2023/06/07 09:52:02;;;;;;;;;;;;;;;28.03;60.69;99697.00;4395122;32;20124;-84
2023/06/07 09:54:54;;;;;;;8.02;4.70;;;;;;;28.25;60.70;99698.28;4408401;32;19991;-85
2023/06/07 09:57:23;;;;;;;6.90;4.90;;;;;;;28.10;60.69;99698.00;4406084;32;20109;-82
2023/06/07 09:59:57;;;;;;;7.82;5.30;;;;;;;28.27;60.70;99698.94;4406759;32;20624;-84
2023/06/07 10:02:29;;;;;;;129.63;64.22;;;;;;;28.27;60.70;99698.94;4407632;32;20169;-84
2023/06/07 10:04:56;;;;;;;10.93;8.13;;;;;;;28.11;60.69;99689.81;4409521;32;20192;-84
2023/06/07 10:07:23;;;;;;;8.82;6.30;;;;;;;28.04;60.68;99696.84;4394181;32;20081;-83
2023/06/07 10:09:51;;;;;;;10.40;5.50;;;;;;;28.20;60.69;99688.03;4400759;32;20128;-84
2023/06/07 10:12:17;;;;;;;7.07;5.45;;;;;;;28.19;60.69;99688.19;4410059;32;20105;-82
2023/06/07 10:14:45;;;;;;;7.80;5.12;;;;;;;28.23;60.70;99682.34;4381697;32;20132;-84
2023/06/07 10:17:10;;;;;;;8.20;5.10;;;;;;;28.46;60.70;99676.41;4422554;32;20438;-84
2023/06/07 10:19:46;;;;;;;7.07;5.20;;;;;;;28.49;60.72;99679.56;4422907;32;20094;-85
2023/06/07 10:22:16;;;;;;;7.45;5.95;;;;;;;28.49;60.72;99681.41;4409286;32;20163;-83
2023/06/07 10:25:08;;;;;;;6.28;5.15;;;;;;;28.36;60.70;99677.38;4406913;32;20094;-85
2023/06/07 10:27:38;;;;;;;11.80;5.87;;;;;;;28.03;60.69;99684.47;4401815;32;20093;-83
2023/06/07 10:30:11;;;;;;;16.90;6.45;;;;;;;27.80;60.67;99681.53;4409914;32;20113;-84
2023/06/07 10:32:38;;;;;;;7.97;5.12;;;;;;;27.88;60.68;99683.38;4423728;32;20128;-84
2023/06/07 10:35:07;;;;;;;9.40;6.05;;;;;;;28.12;60.69;99690.66;4423459;32;20102;-83
2023/06/07 10:37:33;;;;;;;6.97;5.18;;;;;;;27.96;60.69;99679.94;4423358;32;20078;-83
2023/06/07 10:39:59;;;;;;;10.40;5.07;;;;;;;28.03;60.69;99683.63;4409245;32;20113;-83
2023/06/07 10:42:25;;;;;;;8.63;4.87;;;;;;;28.10;60.70;99687.31;4406990;32;20661;-84
2023/06/07 10:44:50;;;;;;;10.55;5.00;;;;;;;28.20;60.70;99677.31;4405542;32;20140;-83
2023/06/07 10:47:22;;;;;;;12.65;6.28;;;;;;;28.24;60.71;99677.81;4390744;32;20113;-83
2023/06/07 10:49:47;;;;;;;19.75;6.35;;;;;;;28.49;60.72;99682.25;4408678;32;20132;-83
2023/06/07 10:52:15;;;;;;;8.05;5.18;;;;;;;28.37;60.71;99679.03;4406520;32;20113;-84
2023/06/07 10:54:41;;;;;;;10.18;5.62;;;;;;;28.49;60.71;99682.25;4422755;32;20085;-85
2023/06/07 10:57:06;;;;;;;8.18;5.60;;;;;;;28.64;60.72;99675.25;4406912;32;20121;-84
2023/06/07 10:59:32;;;;;;;9.73;7.00;;;;;;;28.54;60.72;99673.72;4396133;32;20102;-85
2023/06/07 11:02:23;;;;;;;8.68;6.05;;;;;;;28.50;60.72;99673.22;4417057;32;20085;-84
2023/06/07 11:04:59;;;;;;;8.80;6.32;;;;;;;28.64;60.72;99674.41;4399106;32;20098;-84
2023/06/07 11:07:30;;;;;;;11.57;9.27;;;;;;;28.72;60.73;99669.88;4394709;32;20371;-84
2023/06/07 11:10:07;;;;;;;12.40;7.85;;;;;;;28.63;60.73;99678.09;4402845;32;20109;-84
2023/06/07 11:12:36;;;;;;;12.00;6.82;;;;;;;28.87;60.74;99677.28;4423005;32;20149;-84
2023/06/07 11:15:16;;;;;;;11.30;5.53;;;;;;;28.86;60.74;99668.38;4406643;32;20157;-83
2023/06/07 11:17:58;;;;;;;11.32;6.30;;;;;;;28.82;60.73;99667.00;4423041;32;20082;-84
2023/06/07 11:20:36;;;;;;;11.23;6.40;;;;;;;28.51;60.71;99669.53;4422873;32;20101;-84
2023/06/07 11:23:23;;;;;;;10.75;6.78;;;;;;;28.71;60.73;99670.88;4406530;32;20101;-84
2023/06/07 11:25:51;;;;;;;10.02;5.93;;;;;;;28.66;60.72;99673.22;4393754;32;20458;-83
2023/06/07 11:28:30;;;;;;;8.80;6.87;;;;;;;28.91;60.73;99670.59;4419977;32;20094;-85
2023/06/07 11:30:56;;;;;;;12.93;7.28;;;;;;;29.05;60.74;99661.84;4423000;32;20197;-84